sensor_id;sensor_type;location;lat;lon;timestamp;P1;durP1;ratioP1;P2;durP2;ratioP2
16262;SDS011;8239;48.594;8.598;2023-04-03T00:01:48;4.10;;;2.90;;
16262;SDS011;8239;48.594;8.598;2023-04-03T00:04:15;5.13;;;3.23;;
16262;SDS011;8239;48.594;8.598;2023-04-03T00:06:42;4.37;;;3.10;;
16262;SDS011;8239;48.594;8.598;2023-04-03T00:09:10;4.27;;;3.30;;
16262;SDS011;8239;48.594;8.598;2023-04-03T00:11:37;4.17;;;3.30;;
16262;SDS011;8239;48.594;8.598;2023-04-03T00:14:04;5.00;;;3.40;;
16262;SDS011;8239;48.594;8.598;2023-04-03T00:16:31;3.80;;;3.40;;
16262;SDS011;8239;48.594;8.598;2023-04-03T00:18:59;4.60;;;3.40;;
16262;SDS011;8239;48.594;8.598;2023-04-03T00:21:26;3.83;;;3.53;;
16262;SDS011;8239;48.594;8.598;2023-04-03T00:23:53;5.10;;;3.40;;
16262;SDS011;8239;48.594;8.598;2023-04-03T00:26:20;5.67;;;3.03;;
16262;SDS011;8239;48.594;8.598;2023-04-03T00:28:48;4.60;;;3.30;;
16262;SDS011;8239;48.594;8.598;2023-04-03T00:31:15;5.03;;;3.77;;
16262;SDS011;8239;48.594;8.598;2023-04-03T00:33:42;4.20;;;3.30;;
16262;SDS011;8239;48.594;8.598;2023-04-03T00:36:11;4.00;;;3.53;;
16262;SDS011;8239;48.594;8.598;2023-04-03T00:38:39;5.00;;;3.70;;
16262;SDS011;8239;48.594;8.598;2023-04-03T00:41:06;5.57;;;3.33;;
16262;SDS011;8239;48.594;8.598;2023-04-03T00:43:34;3.80;;;3.23;;
16262;SDS011;8239;48.594;8.598;2023-04-03T00:46:01;5.90;;;3.53;;
16262;SDS011;8239;48.594;8.598;2023-04-03T00:48:29;4.97;;;3.20;;
16262;SDS011;8239;48.594;8.598;2023-04-03T00:50:58;3.80;;;3.40;;
16262;SDS011;8239;48.594;8.598;2023-04-03T00:53:27;4.50;;;3.50;;
16262;SDS011;8239;48.594;8.598;2023-04-03T00:55:56;3.90;;;3.47;;
16262;SDS011;8239;48.594;8.598;2023-04-03T00:58:26;4.77;;;3.67;;
16262;SDS011;8239;48.594;8.598;2023-04-03T01:00:59;5.10;;;3.50;;
16262;SDS011;8239;48.594;8.598;2023-04-03T01:03:31;4.97;;;3.70;;
16262;SDS011;8239;48.594;8.598;2023-04-03T01:05:58;4.30;;;3.47;;
16262;SDS011;8239;48.594;8.598;2023-04-03T01:08:27;5.73;;;3.60;;
16262;SDS011;8239;48.594;8.598;2023-04-03T01:10:54;4.00;;;3.60;;
16262;SDS011;8239;48.594;8.598;2023-04-03T01:13:23;4.07;;;3.67;;
16262;SDS011;8239;48.594;8.598;2023-04-03T01:15:51;4.13;;;3.73;;
16262;SDS011;8239;48.594;8.598;2023-04-03T01:18:19;4.53;;;3.93;;
16262;SDS011;8239;48.594;8.598;2023-04-03T01:20:55;7.13;;;4.00;;
16262;SDS011;8239;48.594;8.598;2023-04-03T01:23:50;4.10;;;3.50;;
16262;SDS011;8239;48.594;8.598;2023-04-03T01:26:26;3.90;;;3.40;;
16262;SDS011;8239;48.594;8.598;2023-04-03T01:28:54;7.00;;;4.20;;
16262;SDS011;8239;48.594;8.598;2023-04-03T01:31:22;4.30;;;3.90;;
16262;SDS011;8239;48.594;8.598;2023-04-03T01:33:54;4.03;;;3.60;;
16262;SDS011;8239;48.594;8.598;2023-04-03T01:36:23;4.87;;;3.87;;
16262;SDS011;8239;48.594;8.598;2023-04-03T01:38:52;6.37;;;3.90;;
16262;SDS011;8239;48.594;8.598;2023-04-03T01:41:20;4.20;;;3.53;;
16262;SDS011;8239;48.594;8.598;2023-04-03T01:43:47;6.43;;;3.80;;
16262;SDS011;8239;48.594;8.598;2023-04-03T01:46:15;4.30;;;3.83;;
16262;SDS011;8239;48.594;8.598;2023-04-03T01:48:42;5.13;;;4.00;;
16262;SDS011;8239;48.594;8.598;2023-04-03T01:51:11;5.27;;;4.03;;
16262;SDS011;8239;48.594;8.598;2023-04-03T01:53:38;4.37;;;3.90;;
16262;SDS011;8239;48.594;8.598;2023-04-03T01:56:05;4.43;;;3.57;;
16262;SDS011;8239;48.594;8.598;2023-04-03T01:58:32;5.50;;;3.97;;
16262;SDS011;8239;48.594;8.598;2023-04-03T02:01:00;5.20;;;4.00;;
16262;SDS011;8239;48.594;8.598;2023-04-03T02:03:27;5.30;;;4.17;;
16262;SDS011;8239;48.594;8.598;2023-04-03T02:05:54;5.13;;;4.20;;
16262;SDS011;8239;48.594;8.598;2023-04-03T02:08:23;4.87;;;4.03;;
16262;SDS011;8239;48.594;8.598;2023-04-03T02:10:50;5.53;;;4.27;;
16262;SDS011;8239;48.594;8.598;2023-04-03T02:13:17;4.43;;;3.67;;
16262;SDS011;8239;48.594;8.598;2023-04-03T02:15:45;4.57;;;4.07;;
16262;SDS011;8239;48.594;8.598;2023-04-03T02:18:14;6.17;;;4.03;;
16262;SDS011;8239;48.594;8.598;2023-04-03T02:20:41;6.20;;;4.20;;
16262;SDS011;8239;48.594;8.598;2023-04-03T02:23:09;5.27;;;3.97;;
16262;SDS011;8239;48.594;8.598;2023-04-03T02:25:37;4.80;;;3.80;;
16262;SDS011;8239;48.594;8.598;2023-04-03T02:28:05;5.10;;;4.10;;
16262;SDS011;8239;48.594;8.598;2023-04-03T02:30:32;4.80;;;4.13;;
16262;SDS011;8239;48.594;8.598;2023-04-03T02:32:59;6.27;;;4.10;;
16262;SDS011;8239;48.594;8.598;2023-04-03T02:35:26;6.30;;;4.20;;
16262;SDS011;8239;48.594;8.598;2023-04-03T02:37:53;7.00;;;4.23;;
16262;SDS011;8239;48.594;8.598;2023-04-03T02:40:20;5.60;;;4.40;;
16262;SDS011;8239;48.594;8.598;2023-04-03T02:42:49;5.00;;;4.20;;
16262;SDS011;8239;48.594;8.598;2023-04-03T02:45:16;4.60;;;4.10;;
16262;SDS011;8239;48.594;8.598;2023-04-03T02:47:43;5.10;;;4.10;;
16262;SDS011;8239;48.594;8.598;2023-04-03T02:50:10;7.80;;;4.60;;
16262;SDS011;8239;48.594;8.598;2023-04-03T02:52:37;6.37;;;4.10;;
16262;SDS011;8239;48.594;8.598;2023-04-03T02:55:04;5.40;;;4.70;;
16262;SDS011;8239;48.594;8.598;2023-04-03T02:57:32;6.67;;;5.07;;
16262;SDS011;8239;48.594;8.598;2023-04-03T03:00:02;5.47;;;4.27;;
16262;SDS011;8239;48.594;8.598;2023-04-03T03:02:29;4.50;;;3.90;;
16262;SDS011;8239;48.594;8.598;2023-04-03T03:04:56;6.10;;;4.50;;
16262;SDS011;8239;48.594;8.598;2023-04-03T03:07:23;5.50;;;4.70;;
16262;SDS011;8239;48.594;8.598;2023-04-03T03:09:51;6.60;;;4.50;;
16262;SDS011;8239;48.594;8.598;2023-04-03T03:12:18;6.60;;;4.00;;
16262;SDS011;8239;48.594;8.598;2023-04-03T03:14:46;5.87;;;3.90;;
16262;SDS011;8239;48.594;8.598;2023-04-03T03:17:15;5.80;;;3.90;;
16262;SDS011;8239;48.594;8.598;2023-04-03T03:19:42;6.03;;;4.10;;
16262;SDS011;8239;48.594;8.598;2023-04-03T03:22:10;4.63;;;3.90;;
16262;SDS011;8239;48.594;8.598;2023-04-03T03:24:37;4.83;;;3.80;;
16262;SDS011;8239;48.594;8.598;2023-04-03T03:27:04;6.43;;;4.17;;
16262;SDS011;8239;48.594;8.598;2023-04-03T03:29:32;4.30;;;3.90;;
16262;SDS011;8239;48.594;8.598;2023-04-03T03:31:59;5.63;;;4.30;;
16262;SDS011;8239;48.594;8.598;2023-04-03T03:34:27;5.47;;;4.10;;
16262;SDS011;8239;48.594;8.598;2023-04-03T03:36:54;5.90;;;4.53;;
16262;SDS011;8239;48.594;8.598;2023-04-03T03:39:21;6.53;;;4.30;;
16262;SDS011;8239;48.594;8.598;2023-04-03T03:41:48;5.17;;;4.33;;
16262;SDS011;8239;48.594;8.598;2023-04-03T03:44:15;6.27;;;4.10;;
16262;SDS011;8239;48.594;8.598;2023-04-03T03:46:42;5.40;;;4.23;;
16262;SDS011;8239;48.594;8.598;2023-04-03T03:49:09;5.47;;;3.90;;
16262;SDS011;8239;48.594;8.598;2023-04-03T03:51:38;7.63;;;4.40;;
16262;SDS011;8239;48.594;8.598;2023-04-03T03:54:06;5.37;;;4.33;;
16262;SDS011;8239;48.594;8.598;2023-04-03T03:56:33;6.53;;;4.40;;
16262;SDS011;8239;48.594;8.598;2023-04-03T03:59:00;6.00;;;4.43;;
16262;SDS011;8239;48.594;8.598;2023-04-03T04:01:28;6.00;;;4.27;;
16262;SDS011;8239;48.594;8.598;2023-04-03T04:03:55;4.87;;;4.30;;
16262;SDS011;8239;48.594;8.598;2023-04-03T04:06:22;6.10;;;4.20;;
16262;SDS011;8239;48.594;8.598;2023-04-03T04:08:51;5.00;;;4.07;;
16262;SDS011;8239;48.594;8.598;2023-04-03T04:11:18;6.50;;;4.23;;
16262;SDS011;8239;48.594;8.598;2023-04-03T04:13:47;5.20;;;4.00;;
16262;SDS011;8239;48.594;8.598;2023-04-03T04:16:14;4.47;;;3.87;;
16262;SDS011;8239;48.594;8.598;2023-04-03T04:18:42;5.57;;;4.07;;
16262;SDS011;8239;48.594;8.598;2023-04-03T04:21:09;4.77;;;4.20;;
16262;SDS011;8239;48.594;8.598;2023-04-03T04:23:36;4.53;;;3.63;;
16262;SDS011;8239;48.594;8.598;2023-04-03T04:26:05;6.60;;;4.10;;
16262;SDS011;8239;48.594;8.598;2023-04-03T04:28:32;6.63;;;3.80;;
16262;SDS011;8239;48.594;8.598;2023-04-03T04:30:59;5.40;;;3.70;;
16262;SDS011;8239;48.594;8.598;2023-04-03T04:33:26;6.53;;;4.10;;
16262;SDS011;8239;48.594;8.598;2023-04-03T04:35:54;5.10;;;4.10;;
16262;SDS011;8239;48.594;8.598;2023-04-03T04:38:21;5.17;;;3.90;;
16262;SDS011;8239;48.594;8.598;2023-04-03T04:40:48;5.47;;;4.07;;
16262;SDS011;8239;48.594;8.598;2023-04-03T04:43:17;4.53;;;3.77;;
16262;SDS011;8239;48.594;8.598;2023-04-03T04:45:44;5.87;;;4.00;;
16262;SDS011;8239;48.594;8.598;2023-04-03T04:48:22;5.32;;;4.40;;
16262;SDS011;8239;48.594;8.598;2023-04-03T04:50:49;5.77;;;4.23;;
16262;SDS011;8239;48.594;8.598;2023-04-03T04:53:16;4.27;;;3.37;;
16262;SDS011;8239;48.594;8.598;2023-04-03T04:55:43;5.00;;;4.27;;
16262;SDS011;8239;48.594;8.598;2023-04-03T04:58:10;3.93;;;3.50;;
16262;SDS011;8239;48.594;8.598;2023-04-03T05:00:38;4.37;;;3.93;;
16262;SDS011;8239;48.594;8.598;2023-04-03T05:03:06;5.17;;;3.83;;
16262;SDS011;8239;48.594;8.598;2023-04-03T05:05:33;4.03;;;3.63;;
16262;SDS011;8239;48.594;8.598;2023-04-03T05:08:00;4.37;;;3.50;;
16262;SDS011;8239;48.594;8.598;2023-04-03T05:10:28;6.07;;;3.70;;
16262;SDS011;8239;48.594;8.598;2023-04-03T05:12:55;4.97;;;3.60;;
16262;SDS011;8239;48.594;8.598;2023-04-03T05:15:22;4.37;;;3.40;;
16262;SDS011;8239;48.594;8.598;2023-04-03T05:17:51;6.47;;;3.67;;
16262;SDS011;8239;48.594;8.598;2023-04-03T05:20:18;3.60;;;3.30;;
16262;SDS011;8239;48.594;8.598;2023-04-03T05:22:45;5.20;;;3.67;;
16262;SDS011;8239;48.594;8.598;2023-04-03T05:25:12;4.73;;;3.77;;
16262;SDS011;8239;48.594;8.598;2023-04-03T05:27:39;4.07;;;3.67;;
16262;SDS011;8239;48.594;8.598;2023-04-03T05:30:07;5.43;;;4.00;;
16262;SDS011;8239;48.594;8.598;2023-04-03T05:32:35;3.83;;;3.40;;
16262;SDS011;8239;48.594;8.598;2023-04-03T05:35:04;4.83;;;3.57;;
16262;SDS011;8239;48.594;8.598;2023-04-03T05:37:32;5.10;;;3.50;;
16262;SDS011;8239;48.594;8.598;2023-04-03T05:39:59;4.90;;;3.80;;
16262;SDS011;8239;48.594;8.598;2023-04-03T05:42:27;5.20;;;3.33;;
16262;SDS011;8239;48.594;8.598;2023-04-03T05:44:54;4.03;;;3.47;;
16262;SDS011;8239;48.594;8.598;2023-04-03T05:47:22;4.63;;;3.63;;
16262;SDS011;8239;48.594;8.598;2023-04-03T05:49:51;5.23;;;3.23;;
16262;SDS011;8239;48.594;8.598;2023-04-03T05:52:22;4.50;;;3.73;;
16262;SDS011;8239;48.594;8.598;2023-04-03T05:54:52;3.50;;;3.20;;
16262;SDS011;8239;48.594;8.598;2023-04-03T05:57:19;3.77;;;3.47;;
16262;SDS011;8239;48.594;8.598;2023-04-03T05:59:47;6.20;;;3.60;;
16262;SDS011;8239;48.594;8.598;2023-04-03T06:02:15;3.50;;;3.20;;
16262;SDS011;8239;48.594;8.598;2023-04-03T06:04:43;4.10;;;3.50;;
16262;SDS011;8239;48.594;8.598;2023-04-03T06:07:10;3.73;;;3.30;;
16262;SDS011;8239;48.594;8.598;2023-04-03T06:09:42;4.87;;;3.47;;
16262;SDS011;8239;48.594;8.598;2023-04-03T06:12:09;4.30;;;3.40;;
16262;SDS011;8239;48.594;8.598;2023-04-03T06:14:36;4.23;;;3.40;;
16262;SDS011;8239;48.594;8.598;2023-04-03T06:17:04;4.47;;;3.40;;
16262;SDS011;8239;48.594;8.598;2023-04-03T06:19:31;3.50;;;3.20;;
16262;SDS011;8239;48.594;8.598;2023-04-03T06:21:59;4.30;;;3.30;;
16262;SDS011;8239;48.594;8.598;2023-04-03T06:24:26;3.13;;;2.93;;
16262;SDS011;8239;48.594;8.598;2023-04-03T06:26:55;3.90;;;2.97;;
16262;SDS011;8239;48.594;8.598;2023-04-03T06:29:22;3.80;;;2.70;;
16262;SDS011;8239;48.594;8.598;2023-04-03T06:31:50;3.57;;;2.53;;
16262;SDS011;8239;48.594;8.598;2023-04-03T06:34:18;3.03;;;2.73;;
16262;SDS011;8239;48.594;8.598;2023-04-03T06:36:45;4.20;;;3.00;;
16262;SDS011;8239;48.594;8.598;2023-04-03T06:39:14;2.53;;;2.23;;
16262;SDS011;8239;48.594;8.598;2023-04-03T06:41:43;3.40;;;2.67;;
16262;SDS011;8239;48.594;8.598;2023-04-03T06:44:12;2.60;;;2.40;;
16262;SDS011;8239;48.594;8.598;2023-04-03T06:46:40;4.33;;;2.70;;
16262;SDS011;8239;48.594;8.598;2023-04-03T06:49:08;2.77;;;2.37;;
16262;SDS011;8239;48.594;8.598;2023-04-03T06:51:36;3.30;;;2.30;;
16262;SDS011;8239;48.594;8.598;2023-04-03T06:54:04;7.27;;;3.10;;
16262;SDS011;8239;48.594;8.598;2023-04-03T06:56:33;4.07;;;2.23;;
16262;SDS011;8239;48.594;8.598;2023-04-03T06:59:00;2.47;;;2.27;;
16262;SDS011;8239;48.594;8.598;2023-04-03T07:01:29;3.47;;;2.10;;
16262;SDS011;8239;48.594;8.598;2023-04-03T07:03:56;2.47;;;2.27;;
16262;SDS011;8239;48.594;8.598;2023-04-03T07:06:24;6.03;;;4.23;;
16262;SDS011;8239;48.594;8.598;2023-04-03T07:08:52;2.77;;;2.57;;
16262;SDS011;8239;48.594;8.598;2023-04-03T07:11:20;3.13;;;2.67;;
16262;SDS011;8239;48.594;8.598;2023-04-03T07:13:47;3.00;;;2.40;;
16262;SDS011;8239;48.594;8.598;2023-04-03T07:16:14;2.93;;;2.50;;
16262;SDS011;8239;48.594;8.598;2023-04-03T07:18:43;3.03;;;2.20;;
16262;SDS011;8239;48.594;8.598;2023-04-03T07:21:10;4.07;;;2.70;;
16262;SDS011;8239;48.594;8.598;2023-04-03T07:23:37;3.30;;;2.60;;
16262;SDS011;8239;48.594;8.598;2023-04-03T07:26:05;2.67;;;2.30;;
16262;SDS011;8239;48.594;8.598;2023-04-03T07:28:33;2.43;;;2.10;;
16262;SDS011;8239;48.594;8.598;2023-04-03T07:31:02;2.77;;;2.50;;
16262;SDS011;8239;48.594;8.598;2023-04-03T07:33:31;2.93;;;2.27;;
16262;SDS011;8239;48.594;8.598;2023-04-03T07:36:00;1.87;;;1.70;;
16262;SDS011;8239;48.594;8.598;2023-04-03T07:38:27;2.17;;;2.00;;
16262;SDS011;8239;48.594;8.598;2023-04-03T07:40:55;4.80;;;2.20;;
16262;SDS011;8239;48.594;8.598;2023-04-03T07:43:22;2.33;;;2.13;;
16262;SDS011;8239;48.594;8.598;2023-04-03T07:45:50;3.27;;;2.03;;
16262;SDS011;8239;48.594;8.598;2023-04-03T07:48:19;3.90;;;2.10;;
16262;SDS011;8239;48.594;8.598;2023-04-03T07:50:47;3.30;;;2.20;;
16262;SDS011;8239;48.594;8.598;2023-04-03T07:53:15;2.30;;;2.10;;
16262;SDS011;8239;48.594;8.598;2023-04-03T07:55:42;2.17;;;1.97;;
16262;SDS011;8239;48.594;8.598;2023-04-03T07:58:12;2.20;;;1.97;;
16262;SDS011;8239;48.594;8.598;2023-04-03T08:00:40;2.63;;;1.80;;
16262;SDS011;8239;48.594;8.598;2023-04-03T08:03:09;2.10;;;1.90;;
16262;SDS011;8239;48.594;8.598;2023-04-03T08:05:37;2.23;;;1.80;;
16262;SDS011;8239;48.594;8.598;2023-04-03T08:08:05;1.80;;;1.70;;
16262;SDS011;8239;48.594;8.598;2023-04-03T08:10:35;2.00;;;1.90;;
16262;SDS011;8239;48.594;8.598;2023-04-03T08:13:02;2.17;;;1.90;;
16262;SDS011;8239;48.594;8.598;2023-04-03T08:15:29;2.23;;;1.90;;
16262;SDS011;8239;48.594;8.598;2023-04-03T08:17:56;2.00;;;1.80;;
16262;SDS011;8239;48.594;8.598;2023-04-03T08:20:24;3.03;;;2.10;;
16262;SDS011;8239;48.594;8.598;2023-04-03T08:22:51;2.43;;;1.80;;
16262;SDS011;8239;48.594;8.598;2023-04-03T08:25:18;1.90;;;1.80;;
16262;SDS011;8239;48.594;8.598;2023-04-03T08:27:47;1.87;;;1.77;;
16262;SDS011;8239;48.594;8.598;2023-04-03T08:30:14;2.00;;;1.80;;
16262;SDS011;8239;48.594;8.598;2023-04-03T08:32:41;2.00;;;1.90;;
16262;SDS011;8239;48.594;8.598;2023-04-03T08:35:09;2.37;;;1.90;;
16262;SDS011;8239;48.594;8.598;2023-04-03T08:37:38;1.73;;;1.57;;
16262;SDS011;8239;48.594;8.598;2023-04-03T08:40:10;2.20;;;1.93;;
16262;SDS011;8239;48.594;8.598;2023-04-03T08:42:42;2.63;;;2.10;;
16262;SDS011;8239;48.594;8.598;2023-04-03T08:45:19;2.50;;;1.80;;
16262;SDS011;8239;48.594;8.598;2023-04-03T08:47:52;2.43;;;1.80;;
16262;SDS011;8239;48.594;8.598;2023-04-03T08:50:24;1.60;;;1.50;;
16262;SDS011;8239;48.594;8.598;2023-04-03T08:52:57;2.17;;;1.90;;
16262;SDS011;8239;48.594;8.598;2023-04-03T08:55:26;6.77;;;3.37;;
16262;SDS011;8239;48.594;8.598;2023-04-03T08:57:58;7.63;;;3.90;;
16262;SDS011;8239;48.594;8.598;2023-04-03T09:00:29;10.77;;;5.23;;
16262;SDS011;8239;48.594;8.598;2023-04-03T09:03:01;2.73;;;1.93;;
16262;SDS011;8239;48.594;8.598;2023-04-03T09:05:31;2.70;;;2.10;;
16262;SDS011;8239;48.594;8.598;2023-04-03T09:08:09;1.80;;;1.70;;
16262;SDS011;8239;48.594;8.598;2023-04-03T09:10:45;2.60;;;2.20;;
16262;SDS011;8239;48.594;8.598;2023-04-03T09:13:20;4.27;;;2.03;;
16262;SDS011;8239;48.594;8.598;2023-04-03T09:15:53;3.60;;;1.90;;
16262;SDS011;8239;48.594;8.598;2023-04-03T09:18:23;3.43;;;2.20;;
16262;SDS011;8239;48.594;8.598;2023-04-03T09:20:56;2.60;;;2.33;;
16262;SDS011;8239;48.594;8.598;2023-04-03T09:23:30;3.00;;;2.30;;
16262;SDS011;8239;48.594;8.598;2023-04-03T09:26:04;2.77;;;2.30;;
16262;SDS011;8239;48.594;8.598;2023-04-03T09:28:37;2.33;;;2.13;;
16262;SDS011;8239;48.594;8.598;2023-04-03T09:31:11;2.07;;;1.87;;
16262;SDS011;8239;48.594;8.598;2023-04-03T09:33:45;2.70;;;2.00;;
16262;SDS011;8239;48.594;8.598;2023-04-03T09:36:12;2.20;;;2.00;;
16262;SDS011;8239;48.594;8.598;2023-04-03T09:38:40;2.07;;;1.97;;
16262;SDS011;8239;48.594;8.598;2023-04-03T09:41:11;2.33;;;2.10;;
16262;SDS011;8239;48.594;8.598;2023-04-03T09:43:51;2.30;;;2.10;;
16262;SDS011;8239;48.594;8.598;2023-04-03T09:46:25;1.80;;;1.70;;
16262;SDS011;8239;48.594;8.598;2023-04-03T09:48:56;2.70;;;1.73;;
16262;SDS011;8239;48.594;8.598;2023-04-03T09:51:25;2.17;;;1.80;;
16262;SDS011;8239;48.594;8.598;2023-04-03T09:53:54;2.07;;;1.63;;
16262;SDS011;8239;48.594;8.598;2023-04-03T09:56:23;2.10;;;1.90;;
16262;SDS011;8239;48.594;8.598;2023-04-03T09:59:08;1.90;;;1.70;;
16262;SDS011;8239;48.594;8.598;2023-04-03T10:01:42;2.90;;;1.73;;
16262;SDS011;8239;48.594;8.598;2023-04-03T10:04:22;2.90;;;1.90;;
16262;SDS011;8239;48.594;8.598;2023-04-03T10:06:50;4.20;;;1.97;;
16262;SDS011;8239;48.594;8.598;2023-04-03T10:09:19;2.70;;;2.17;;
16262;SDS011;8239;48.594;8.598;2023-04-03T10:11:58;2.50;;;2.30;;
16262;SDS011;8239;48.594;8.598;2023-04-03T10:14:31;4.10;;;2.10;;
16262;SDS011;8239;48.594;8.598;2023-04-03T10:17:03;3.20;;;2.20;;
16262;SDS011;8239;48.594;8.598;2023-04-03T10:19:40;3.63;;;2.83;;
16262;SDS011;8239;48.594;8.598;2023-04-03T10:22:15;9.53;;;6.60;;
16262;SDS011;8239;48.594;8.598;2023-04-03T10:24:52;3.60;;;2.10;;
16262;SDS011;8239;48.594;8.598;2023-04-03T10:27:29;3.80;;;2.50;;
16262;SDS011;8239;48.594;8.598;2023-04-03T10:30:14;2.17;;;1.97;;
16262;SDS011;8239;48.594;8.598;2023-04-03T10:32:52;3.37;;;2.30;;
16262;SDS011;8239;48.594;8.598;2023-04-03T10:35:30;2.10;;;2.00;;
16262;SDS011;8239;48.594;8.598;2023-04-03T10:38:14;3.87;;;3.00;;
16262;SDS011;8239;48.594;8.598;2023-04-03T10:40:47;2.57;;;2.00;;
16262;SDS011;8239;48.594;8.598;2023-04-03T10:43:22;2.77;;;2.33;;
16262;SDS011;8239;48.594;8.598;2023-04-03T10:46:01;3.93;;;2.50;;
16262;SDS011;8239;48.594;8.598;2023-04-03T10:48:35;2.37;;;1.90;;
16262;SDS011;8239;48.594;8.598;2023-04-03T10:51:18;2.90;;;2.30;;
16262;SDS011;8239;48.594;8.598;2023-04-03T10:53:52;2.93;;;2.43;;
16262;SDS011;8239;48.594;8.598;2023-04-03T10:56:30;3.43;;;2.20;;
16262;SDS011;8239;48.594;8.598;2023-04-03T10:59:06;2.83;;;2.50;;
16262;SDS011;8239;48.594;8.598;2023-04-03T11:01:44;2.43;;;2.23;;
16262;SDS011;8239;48.594;8.598;2023-04-03T11:04:15;2.83;;;2.63;;
16262;SDS011;8239;48.594;8.598;2023-04-03T11:06:47;3.20;;;2.33;;
16262;SDS011;8239;48.594;8.598;2023-04-03T11:09:21;3.07;;;2.30;;
16262;SDS011;8239;48.594;8.598;2023-04-03T11:11:51;2.50;;;2.23;;
16262;SDS011;8239;48.594;8.598;2023-04-03T11:14:24;2.67;;;2.03;;
16262;SDS011;8239;48.594;8.598;2023-04-03T11:16:59;3.50;;;2.53;;
16262;SDS011;8239;48.594;8.598;2023-04-03T11:19:34;2.23;;;1.90;;
16262;SDS011;8239;48.594;8.598;2023-04-03T11:22:05;3.67;;;2.73;;
16262;SDS011;8239;48.594;8.598;2023-04-03T11:24:38;3.97;;;2.77;;
16262;SDS011;8239;48.594;8.598;2023-04-03T11:27:11;3.70;;;3.07;;
16262;SDS011;8239;48.594;8.598;2023-04-03T11:29:43;4.23;;;2.33;;
16262;SDS011;8239;48.594;8.598;2023-04-03T11:32:21;2.40;;;2.20;;
16262;SDS011;8239;48.594;8.598;2023-04-03T11:35:06;2.30;;;2.10;;
16262;SDS011;8239;48.594;8.598;2023-04-03T11:37:35;1.97;;;1.80;;
16262;SDS011;8239;48.594;8.598;2023-04-03T11:40:07;2.47;;;1.87;;
16262;SDS011;8239;48.594;8.598;2023-04-03T11:42:46;3.70;;;2.03;;
16262;SDS011;8239;48.594;8.598;2023-04-03T11:45:16;2.83;;;2.10;;
16262;SDS011;8239;48.594;8.598;2023-04-03T11:48:04;2.90;;;1.80;;
16262;SDS011;8239;48.594;8.598;2023-04-03T11:50:40;1.90;;;1.70;;
16262;SDS011;8239;48.594;8.598;2023-04-03T11:53:33;2.67;;;1.80;;
16262;SDS011;8239;48.594;8.598;2023-04-03T11:56:26;2.53;;;1.70;;
16262;SDS011;8239;48.594;8.598;2023-04-03T12:01:54;4.40;;;2.10;;
16262;SDS011;8239;48.594;8.598;2023-04-03T12:04:24;1.90;;;1.80;;
16262;SDS011;8239;48.594;8.598;2023-04-03T12:12:43;1.97;;;1.70;;
16262;SDS011;8239;48.594;8.598;2023-04-03T12:24:27;3.30;;;2.30;;
16262;SDS011;8239;48.594;8.598;2023-04-03T12:27:01;2.13;;;1.70;;
16262;SDS011;8239;48.594;8.598;2023-04-03T12:29:36;2.87;;;2.00;;
16262;SDS011;8239;48.594;8.598;2023-04-03T12:32:11;2.07;;;1.70;;
16262;SDS011;8239;48.594;8.598;2023-04-03T12:35:02;1.80;;;1.67;;
16262;SDS011;8239;48.594;8.598;2023-04-03T12:37:48;2.43;;;1.80;;
16262;SDS011;8239;48.594;8.598;2023-04-03T12:40:34;3.60;;;1.83;;
16262;SDS011;8239;48.594;8.598;2023-04-03T12:43:12;2.90;;;1.80;;
16262;SDS011;8239;48.594;8.598;2023-04-03T12:45:49;2.90;;;1.80;;
16262;SDS011;8239;48.594;8.598;2023-04-03T12:48:24;2.17;;;1.80;;
16262;SDS011;8239;48.594;8.598;2023-04-03T12:50:52;2.83;;;1.90;;
16262;SDS011;8239;48.594;8.598;2023-04-03T12:53:21;2.83;;;1.90;;
16262;SDS011;8239;48.594;8.598;2023-04-03T12:55:54;1.97;;;1.60;;
16262;SDS011;8239;48.594;8.598;2023-04-03T12:58:23;2.07;;;1.87;;
16262;SDS011;8239;48.594;8.598;2023-04-03T13:01:00;3.10;;;1.90;;
16262;SDS011;8239;48.594;8.598;2023-04-03T13:03:29;2.20;;;1.73;;
16262;SDS011;8239;48.594;8.598;2023-04-03T13:05:57;2.27;;;1.80;;
16262;SDS011;8239;48.594;8.598;2023-04-03T13:08:27;2.40;;;1.50;;
16262;SDS011;8239;48.594;8.598;2023-04-03T13:10:58;3.30;;;1.87;;
16262;SDS011;8239;48.594;8.598;2023-04-03T13:13:28;2.17;;;1.60;;
16262;SDS011;8239;48.594;8.598;2023-04-03T13:15:56;1.93;;;1.70;;
16262;SDS011;8239;48.594;8.598;2023-04-03T13:18:24;2.13;;;1.50;;
16262;SDS011;8239;48.594;8.598;2023-04-03T13:20:57;2.90;;;1.80;;
16262;SDS011;8239;48.594;8.598;2023-04-03T13:23:29;2.23;;;1.60;;
16262;SDS011;8239;48.594;8.598;2023-04-03T13:25:59;3.10;;;1.57;;
16262;SDS011;8239;48.594;8.598;2023-04-03T13:28:29;3.20;;;1.73;;
16262;SDS011;8239;48.594;8.598;2023-04-03T13:31:06;3.33;;;1.60;;
16262;SDS011;8239;48.594;8.598;2023-04-03T13:33:36;3.10;;;1.73;;
16262;SDS011;8239;48.594;8.598;2023-04-03T13:36:05;1.67;;;1.50;;
16262;SDS011;8239;48.594;8.598;2023-04-03T13:38:42;2.20;;;1.40;;
16262;SDS011;8239;48.594;8.598;2023-04-03T13:41:23;2.73;;;1.60;;
16262;SDS011;8239;48.594;8.598;2023-04-03T13:43:52;1.40;;;1.30;;
16262;SDS011;8239;48.594;8.598;2023-04-03T13:46:23;2.40;;;1.60;;
16262;SDS011;8239;48.594;8.598;2023-04-03T13:48:53;2.17;;;1.50;;
16262;SDS011;8239;48.594;8.598;2023-04-03T13:51:23;2.23;;;1.80;;
16262;SDS011;8239;48.594;8.598;2023-04-03T13:53:52;1.70;;;1.60;;
16262;SDS011;8239;48.594;8.598;2023-04-03T13:56:32;2.17;;;1.70;;
16262;SDS011;8239;48.594;8.598;2023-04-03T13:59:04;2.60;;;1.70;;
16262;SDS011;8239;48.594;8.598;2023-04-03T14:01:47;6.30;;;2.97;;
16262;SDS011;8239;48.594;8.598;2023-04-03T14:04:18;4.67;;;2.83;;
16262;SDS011;8239;48.594;8.598;2023-04-03T14:06:47;2.70;;;1.37;;
16262;SDS011;8239;48.594;8.598;2023-04-03T14:09:16;1.50;;;1.40;;
16262;SDS011;8239;48.594;8.598;2023-04-03T14:11:49;1.53;;;1.40;;
16262;SDS011;8239;48.594;8.598;2023-04-03T14:14:21;2.60;;;1.60;;
16262;SDS011;8239;48.594;8.598;2023-04-03T14:16:51;3.10;;;1.87;;
16262;SDS011;8239;48.594;8.598;2023-04-03T14:19:22;2.67;;;1.60;;
16262;SDS011;8239;48.594;8.598;2023-04-03T14:21:56;3.53;;;1.90;;
16262;SDS011;8239;48.594;8.598;2023-04-03T14:24:34;3.33;;;1.80;;
16262;SDS011;8239;48.594;8.598;2023-04-03T14:27:05;2.27;;;1.50;;
16262;SDS011;8239;48.594;8.598;2023-04-03T14:29:48;1.70;;;1.60;;
16262;SDS011;8239;48.594;8.598;2023-04-03T14:32:21;2.20;;;1.60;;
16262;SDS011;8239;48.594;8.598;2023-04-03T14:34:50;1.87;;;1.47;;
16262;SDS011;8239;48.594;8.598;2023-04-03T14:37:19;1.83;;;1.60;;
16262;SDS011;8239;48.594;8.598;2023-04-03T14:39:48;2.03;;;1.60;;
16262;SDS011;8239;48.594;8.598;2023-04-03T14:42:18;1.83;;;1.43;;
16262;SDS011;8239;48.594;8.598;2023-04-03T14:44:47;2.53;;;1.93;;
16262;SDS011;8239;48.594;8.598;2023-04-03T14:47:16;3.07;;;2.40;;
16262;SDS011;8239;48.594;8.598;2023-04-03T14:49:45;2.23;;;1.60;;
16262;SDS011;8239;48.594;8.598;2023-04-03T14:52:16;2.87;;;1.70;;
16262;SDS011;8239;48.594;8.598;2023-04-03T14:54:45;2.30;;;1.67;;
16262;SDS011;8239;48.594;8.598;2023-04-03T14:57:13;3.93;;;2.40;;
16262;SDS011;8239;48.594;8.598;2023-04-03T14:59:42;1.73;;;1.63;;
16262;SDS011;8239;48.594;8.598;2023-04-03T15:04:50;2.13;;;1.73;;
16262;SDS011;8239;48.594;8.598;2023-04-03T15:07:17;2.77;;;1.73;;
16262;SDS011;8239;48.594;8.598;2023-04-03T15:09:44;3.17;;;1.63;;
16262;SDS011;8239;48.594;8.598;2023-04-03T15:12:12;2.87;;;1.90;;
16262;SDS011;8239;48.594;8.598;2023-04-03T15:14:39;2.17;;;1.60;;
16262;SDS011;8239;48.594;8.598;2023-04-03T15:17:08;1.80;;;1.70;;
16262;SDS011;8239;48.594;8.598;2023-04-03T15:19:41;2.50;;;1.70;;
16262;SDS011;8239;48.594;8.598;2023-04-03T15:22:09;1.60;;;1.50;;
16262;SDS011;8239;48.594;8.598;2023-04-03T15:24:40;1.90;;;1.70;;
16262;SDS011;8239;48.594;8.598;2023-04-03T15:27:07;1.97;;;1.60;;
16262;SDS011;8239;48.594;8.598;2023-04-03T15:29:35;2.83;;;1.77;;
16262;SDS011;8239;48.594;8.598;2023-04-03T15:32:03;1.90;;;1.70;;
16262;SDS011;8239;48.594;8.598;2023-04-03T15:34:33;2.17;;;1.50;;
16262;SDS011;8239;48.594;8.598;2023-04-03T15:37:00;1.70;;;1.60;;
16262;SDS011;8239;48.594;8.598;2023-04-03T15:39:27;2.27;;;1.70;;